WEATHER DATA

TODAY
Time Temp. Dewp. Hum. Wind dir Wind speed Wind gust Bar. 1h Prec. 24h Prec.
00:02 15.4 9.1 66 221 1.4 3.1 1021.2 0.0000 0.0000
00:12 15.4 9.3 67 223 1.4 2.2 1021.2 0.0000 0.0000
00:22 15.6 9.7 68 233 0.8 1.4 1021.1 0.0000 0.0000
00:32 15.7 9.8 68 183 0.8 2.5 1021.1 0.0000 0.0000
00:42 15.7 9.6 67 221 1.1 2.5 1020.9 0.0000 0.0000
00:52 15.7 9.1 65 243 1.1 3.1 1020.9 0.0000 0.0000
01:02 15.7 9.1 65 229 1.1 2.5 1020.8 0.0000 0.0000
01:13 15.6 9.1 65 226 1.1 2.5 1020.8 0.0000 0.0000
01:22 15.5 8.7 64 220 1.4 2.2 1020.8 0.0000 0.0000
01:32 15.3 8.5 64 225 1.9 3.1 1020.7 0.0000 0.0000
01:43 15.2 8.7 65 214 1.4 2.2 1020.6 0.0000 0.0000
01:53 15.1 8.8 66 216 1.9 2.2 1020.6 0.0000 0.0000
02:02 15 8.9 67 223 1.9 2.5 1020.6 0.0000 0.0000
02:12 14.9 8.8 67 222 1.9 2.5 1020.5 0.0000 0.0000
02:23 14.8 9 68 226 1.9 2.5 1020.4 0.0000 0.0000
02:33 14.8 9 68 226 1.9 2.5 1020.5 0.0000 0.0000
02:43 14.7 8.9 68 225 1.9 2.2 1020.5 0.0000 0.0000
02:53 14.7 9.1 69 225 1.9 2.2 1020.4 0.0000 0.0000
03:13 14.6 9 69 225 1.9 2.5 1020.4 0.0000 0.0000
03:23 14.5 8.9 69 226 1.9 2.5 1020.2 0.0000 0.0000
03:34 14.5 8.9 69 225 1.9 2.5 1020.2 0.0000 0.0000
03:43 14.4 8.8 69 225 1.9 2.5 1020.1 0.0000 0.0000
03:53 14.4 9 70 225 1.9 2.2 1020.2 0.0000 0.0000
04:04 14.4 9 70 226 1.9 2.2 1020.2 0.0000 0.0000
04:14 14.4 9 70 226 1.9 2.5 1020.1 0.0000 0.0000
04:24 14.3 9.1 71 225 1.9 2.5 1020.1 0.0000 0.0000
04:44 14.2 9 71 222 1.4 2.2 1020.1 0.0000 0.0000
04:54 14.2 9.2 72 222 1.9 2.5 1020.1 0.0000 0.0000
05:04 14.2 9.2 72 222 1.9 2.5 1020 0.0000 0.0000
05:14 14.2 9.4 73 225 1.9 2.2 1020 0.0000 0.0000
05:24 14.1 9.7 75 219 1.4 2.2 1020 0.0000 0.0000
05:34 14.1 9.9 76 228 1.4 2.2 1020 0.0000 0.0000
05:44 14.1 10.1 77 225 1.9 2.5 1020.1 0.0000 0.0000
05:55 14.1 10.3 78 227 1.4 2.2 1020.1 0.0000 0.0000
06:14 14 10.4 79 226 1.4 2.2 1020 0.0000 0.0000
06:25 14 10.6 80 227 1.4 2.2 1020 0.0000 0.0000
06:45 14.1 10.7 80 222 1.9 2.2 1020 0.0000 0.0000
06:55 14.1 10.7 80 225 1.4 2.2 1019.9 0.0000 0.0000
07:05 14.1 10.9 81 222 1.4 2.2 1019.9 0.0000 0.0000
07:15 14.1 10.9 81 223 1.4 2.2 1019.9 0.0000 0.0000
07:25 14.2 11 81 222 1.4 2.2 1019.9 0.0000 0.0000
07:35 14.3 11.1 81 225 1.4 2.2 1019.9 0.0000 0.0000
07:45 14.4 11.2 81 225 1.1 1.4 1019.9 0.0000 0.0000
07:55 14.7 11.7 82 225 1.1 1.9 1019.9 0.0000 0.0000
08:05 15 12 82 216 0.8 1.4 1019.9 0.0000 0.0000
08:16 15.3 12.1 81 270 0.3 1.1 1019.9 0.0000 0.0000
08:26 15.6 12.2 80 270 0.3 1.1 1020 0.0000 0.0000
08:35 16 12.6 80 270 0.3 1.1 1020 0.0000 0.0000
08:46 16.4 12.6 78 248 1.9 3.6 1020 0.0000 0.0000
08:56 16.6 12.4 76 270 0.8 1.9 1020.1 0.0000 0.0000
09:06 16.9 12.6 76 257 1.1 4.4 1020.2 0.0000 0.0000
09:16 17.1 12.4 74 261 1.1 1.9 1020.2 0.0000 0.0000
09:26 17.2 12.7 75 259 0.8 1.4 1020.4 0.0000 0.0000
09:36 17.3 12.8 75 248 0.8 1.4 1020.4 0.0000 0.0000
09:46 17.3 12.8 75 253 0.8 1.4 1020.4 0.0000 0.0000
09:56 17.5 13.2 76 242 0.8 1.1 1020.4 0.0000 0.0000
10:07 17.6 13.3 76 259 0.8 1.1 1020.4 0.0000 0.0000
10:16 17.8 13.5 76 270 0.3 1.1 1020.4 0.0000 0.0000
10:26 17.9 13.6 76 231 0.8 1.4 1020.4 0.0000 0.0000
10:37 18.2 13.7 75 248 0.8 1.4 1020.5 0.0000 0.0000
10:47 18.6 13.9 74 253 0.8 1.9 1020.5 0.0000 0.0000
10:57 18.8 13.9 73 270 0.8 1.4 1020.5 0.0000 0.0000
11:07 19.1 14.2 73 287 0.8 1.4 1020.5 0.0000 0.0000
11:17 19.2 14.2 73 270 1.1 1.9 1020.5 0.0000 0.0000
11:27 19.4 14 71 270 0.8 1.9 1020.5 0.0000 0.0000
11:37 19.5 14.1 71 270 0.8 1.4 1020.5 0.0000 0.0000
11:48 19.7 14.3 71 270 1.1 1.9 1020.5 0.0000 0.0000
11:57 19.9 14.5 71 270 0.8 1.4 1020.4 0.0000 0.0000
12:07 20 14.4 70 296 0.8 1.1 1020.4 0.0000 0.0000
12:23 20.4 15.2 72 243 2.2 7.5 1020.2 0.0000 0.0000
12:33 20.7 14.6 68 351 0.8 2.5 1020.2 0.0000 0.0000
12:53 21 13.9 64 282 1.1 2.2 1020.2 0.0000 0.0000
13:04 21.1 13.5 62 281 1.1 2.2 1020.1 0.0000 0.0000
13:14 21.4 14.1 63 270 0.3 1.1 1020 0.0000 0.0000
13:23 21.5 13.7 61 312 0.8 1.4 1020 0.0000 0.0000
13:33 21.8 14.7 64 336 1.1 3.1 1019.9 0.0000 0.0000
13:44 21.6 14.3 63 281 1.4 5 1020.2 0.0000 0.0000
13:54 21.6 14 62 270 1.1 2.5 1020.2 0.0000 0.0000
14:10 21.5 15.1 67 258 2.2 7.8 1020.4 0.0000 0.0000
14:20 22.2 13.8 59 270 2.2 4.4 1020.1 0.0000 0.0000
14:30 22.5 14.9 62 253 1.1 4.2 1020 0.0000 0.0000
14:40 22.9 13.1 54 28 1.1 2.5 1020.1 0.0000 0.0000
14:50 21.9 12.5 55 298 1.1 3.3 1020 0.0000 0.0000
15:01 21.8 13.2 58 286 1.1 3.1 1020 0.0000 0.0000
15:11 21.3 13 59 270 1.1 2.2 1020.1 0.0000 0.0000
15:21 21.2 13.9 63 226 1.4 3.1 1020.2 0.0000 0.0000
15:31 20.2 13.7 66 220 1.4 2.2 1020.2 0.0000 0.0000
15:41 19 12.7 67 221 1.9 2.5 1020.1 0.0000 0.0000
15:51 18.4 13.1 71 219 1.9 3.6 1020 0.0000 0.0000
16:01 18 13.3 74 219 2.2 3.3 1020 0.0000 0.0000
16:11 17.7 13.4 76 221 1.4 2.5 1019.8 0.0000 0.0000
16:21 17.4 13.3 77 222 1.4 3.1 1019.5 0.0000 0.0000
16:31 17.4 13.7 79 223 2.2 3.3 1019.2 0.0000 0.0000
16:41 17.4 14.3 82 220 1.9 3.1 1019.3 0.0000 0.0000
16:52 17.5 14.2 81 225 1.4 2.2 1019.4 0.0000 0.0000
17:01 17.5 14 80 226 1.1 1.9 1019.6 0.0000 0.0000
17:11 17.8 14.5 81 244 0.8 1.4 1019.6 0.0000 0.0000
17:22 18.2 14.9 81 227 1.4 2.5 1019.6 0.0000 0.0000
17:31 19.1 15.6 80 229 4.2 10 1019.5 0.0000 0.0000
17:41 20.6 15.6 73 232 3.3 6.7 1019.3 0.0000 0.0000
17:52 22.1 16.2 69 242 1.4 3.1 1019.3 0.0000 0.0000
18:02 23.2 16.3 65 243 0.8 1.1 1019.2 0.0000 0.0000
18:12 23.6 16.1 63 324 0.3 1.1 1019.2 0.0000 0.0000
18:21 24 16.3 62 270 0.8 1.9 1019.3 0.0000 0.0000
18:32 24 15 57 280 0.8 1.4 1019.3 0.0000 0.0000
18:42 24.1 15.9 60 270 0.8 1.4 1019.3 0.0000 0.0000
18:52 24.1 15.6 59 238 0.8 1.4 1019.2 0.0000 0.0000
19:02 23.8 15 58 214 0.8 1.9 1019.2 0.0000 0.0000
19:12 23.1 15.2 61 226 1.4 2.5 1019.2 0.0000 0.0000
19:22 22.8 14.6 60 227 1.9 3.1 1019.1 0.0000 0.0000
19:32 22.2 14.1 60 223 1.9 3.1 1019.1 0.0000 0.0000
19:43 21.2 13.4 61 226 1.9 2.5 1019.1 0.0000 0.0000
19:53 20.2 12.9 63 226 1.9 2.5 1019.1 0.0000 0.0000
20:02 19.3 12.3 64 223 1.9 2.5 1019.2 0.0000 0.0000
20:13 18.4 11.9 66 225 1.9 2.5 1019.2 0.0000 0.0000
20:23 17.6 11.6 68 225 1.9 2.5 1019.2 0.0000 0.0000
20:33 17.1 11.4 69 222 1.9 2.5 1019.3 0.0000 0.0000
20:43 16.7 11.4 71 222 1.9 3.1 1019.3 0.0000 0.0000
20:53 16.4 11.1 71 226 1.4 2.5 1019.4 0.0000 0.0000
21:03 16.2 10.9 71 222 1.4 2.5 1019.4 0.0000 0.0000

DAY STATISTIC

2018-08-20
TEMPERATURE
AVERAGE
17.8
HIGH
24.1
18:42
LOW
14.0
06:14
PRESSURE
AVERAGE
1020.0
HIGH
1021.2
00:02
LOW
1019.1
19:22
DEWPOINT
AVERAGE
12.2
HIGH
16.3
18:02
LOW
8.5
01:32
HUMIDITY
AVERAGE
70
HIGH
82
07:55
LOW
54
14:40
WIND SPEED
AVERAGE
1.4
HIGH
4.2
17:31
WIND GUST
AVERAGE
2.5
HIGH
10.0
17:31
WIND DIRECTION
PREVAILING
SW
65%
N
0.8
NE
0.8
E
0.0
SE
0.0
S
0.8
SW
65.0
W
28.3
NW
4.2
PRECIPITATION
RAIN HOUR
0.0
RAIN DAY
0.0
TEMPERATURE (°C)
LOW
14.0
HIGH
24.1
AVERAGE
17.8
PRESSURE (hpa)
LOW
1019.1
HIGH
1021.2
AVERAGE
1020.0
DEVICE